sensor_id;sensor_type;location;lat;lon;timestamp;P1;durP1;ratioP1;P2;durP2;ratioP2
7557;SDS011;3820;51.098;13.716;2023-09-07T00:01:32;8.43;;;5.15;;
7557;SDS011;3820;51.098;13.716;2023-09-07T00:04:00;8.70;;;5.60;;
7557;SDS011;3820;51.098;13.716;2023-09-07T00:06:27;7.85;;;5.50;;
7557;SDS011;3820;51.098;13.716;2023-09-07T00:08:53;7.57;;;5.35;;
7557;SDS011;3820;51.098;13.716;2023-09-07T00:11:20;10.65;;;6.25;;
7557;SDS011;3820;51.098;13.716;2023-09-07T00:13:47;8.00;;;5.35;;
7557;SDS011;3820;51.098;13.716;2023-09-07T00:16:13;13.93;;;5.50;;
7557;SDS011;3820;51.098;13.716;2023-09-07T00:18:41;8.98;;;6.40;;
7557;SDS011;3820;51.098;13.716;2023-09-07T00:21:07;8.18;;;5.60;;
7557;SDS011;3820;51.098;13.716;2023-09-07T00:23:34;8.43;;;5.93;;
7557;SDS011;3820;51.098;13.716;2023-09-07T00:26:01;8.13;;;5.40;;
7557;SDS011;3820;51.098;13.716;2023-09-07T00:28:27;9.35;;;5.57;;
7557;SDS011;3820;51.098;13.716;2023-09-07T00:30:55;10.88;;;5.70;;
7557;SDS011;3820;51.098;13.716;2023-09-07T00:33:21;8.75;;;5.90;;
7557;SDS011;3820;51.098;13.716;2023-09-07T00:35:48;9.57;;;5.95;;
7557;SDS011;3820;51.098;13.716;2023-09-07T00:38:14;9.90;;;6.32;;
7557;SDS011;3820;51.098;13.716;2023-09-07T00:40:44;10.43;;;6.07;;
7557;SDS011;3820;51.098;13.716;2023-09-07T00:43:14;9.27;;;6.28;;
7557;SDS011;3820;51.098;13.716;2023-09-07T00:45:41;7.15;;;5.57;;
7557;SDS011;3820;51.098;13.716;2023-09-07T00:48:07;8.88;;;5.95;;
7557;SDS011;3820;51.098;13.716;2023-09-07T00:50:34;9.13;;;5.97;;
7557;SDS011;3820;51.098;13.716;2023-09-07T00:53:01;8.93;;;6.43;;
7557;SDS011;3820;51.098;13.716;2023-09-07T00:55:29;8.50;;;6.07;;
7557;SDS011;3820;51.098;13.716;2023-09-07T00:57:59;10.05;;;5.97;;
7557;SDS011;3820;51.098;13.716;2023-09-07T01:00:26;10.63;;;6.65;;
7557;SDS011;3820;51.098;13.716;2023-09-07T01:02:53;8.55;;;5.93;;
7557;SDS011;3820;51.098;13.716;2023-09-07T01:05:21;8.60;;;5.55;;
7557;SDS011;3820;51.098;13.716;2023-09-07T01:07:54;9.27;;;6.20;;
7557;SDS011;3820;51.098;13.716;2023-09-07T01:10:25;8.90;;;6.30;;
7557;SDS011;3820;51.098;13.716;2023-09-07T01:12:52;9.52;;;6.65;;
7557;SDS011;3820;51.098;13.716;2023-09-07T01:15:18;8.13;;;5.72;;
7557;SDS011;3820;51.098;13.716;2023-09-07T01:17:45;9.02;;;5.95;;
7557;SDS011;3820;51.098;13.716;2023-09-07T01:20:13;8.98;;;5.82;;
7557;SDS011;3820;51.098;13.716;2023-09-07T01:22:43;8.95;;;6.03;;
7557;SDS011;3820;51.098;13.716;2023-09-07T01:25:10;7.57;;;5.45;;
7557;SDS011;3820;51.098;13.716;2023-09-07T01:27:37;8.27;;;5.97;;
7557;SDS011;3820;51.098;13.716;2023-09-07T01:30:04;8.00;;;5.65;;
7557;SDS011;3820;51.098;13.716;2023-09-07T01:32:34;8.95;;;5.78;;
7557;SDS011;3820;51.098;13.716;2023-09-07T01:35:01;8.73;;;6.05;;
7557;SDS011;3820;51.098;13.716;2023-09-07T01:37:31;7.40;;;5.28;;
7557;SDS011;3820;51.098;13.716;2023-09-07T01:39:59;8.30;;;5.60;;
7557;SDS011;3820;51.098;13.716;2023-09-07T01:42:27;10.75;;;6.22;;
7557;SDS011;3820;51.098;13.716;2023-09-07T01:44:53;9.88;;;5.97;;
7557;SDS011;3820;51.098;13.716;2023-09-07T01:47:20;9.40;;;6.00;;
7557;SDS011;3820;51.098;13.716;2023-09-07T01:49:47;8.98;;;6.40;;
7557;SDS011;3820;51.098;13.716;2023-09-07T01:52:14;9.32;;;6.00;;
7557;SDS011;3820;51.098;13.716;2023-09-07T01:54:41;14.05;;;6.57;;
7557;SDS011;3820;51.098;13.716;2023-09-07T01:57:08;10.00;;;6.50;;
7557;SDS011;3820;51.098;13.716;2023-09-07T01:59:36;8.35;;;5.63;;
7557;SDS011;3820;51.098;13.716;2023-09-07T02:02:02;8.45;;;5.93;;
7557;SDS011;3820;51.098;13.716;2023-09-07T02:04:29;8.60;;;6.10;;
7557;SDS011;3820;51.098;13.716;2023-09-07T02:06:56;8.93;;;6.70;;
7557;SDS011;3820;51.098;13.716;2023-09-07T02:09:24;8.50;;;6.00;;
7557;SDS011;3820;51.098;13.716;2023-09-07T02:11:51;9.60;;;6.07;;
7557;SDS011;3820;51.098;13.716;2023-09-07T02:14:17;9.73;;;6.25;;
7557;SDS011;3820;51.098;13.716;2023-09-07T02:16:44;9.52;;;6.25;;
7557;SDS011;3820;51.098;13.716;2023-09-07T02:19:11;8.57;;;6.18;;
7557;SDS011;3820;51.098;13.716;2023-09-07T02:21:38;13.52;;;6.53;;
7557;SDS011;3820;51.098;13.716;2023-09-07T02:24:05;8.32;;;6.07;;
7557;SDS011;3820;51.098;13.716;2023-09-07T02:26:36;7.80;;;6.00;;
7557;SDS011;3820;51.098;13.716;2023-09-07T02:29:05;9.10;;;6.45;;
7557;SDS011;3820;51.098;13.716;2023-09-07T02:31:33;11.10;;;6.15;;
7557;SDS011;3820;51.098;13.716;2023-09-07T02:34:00;9.75;;;6.25;;
7557;SDS011;3820;51.098;13.716;2023-09-07T02:36:26;8.55;;;6.32;;
7557;SDS011;3820;51.098;13.716;2023-09-07T02:38:53;9.95;;;6.05;;
7557;SDS011;3820;51.098;13.716;2023-09-07T02:41:20;11.48;;;6.60;;
7557;SDS011;3820;51.098;13.716;2023-09-07T02:43:46;9.57;;;6.43;;
7557;SDS011;3820;51.098;13.716;2023-09-07T02:46:13;9.95;;;6.50;;
7557;SDS011;3820;51.098;13.716;2023-09-07T02:48:39;8.52;;;5.63;;
7557;SDS011;3820;51.098;13.716;2023-09-07T02:51:06;11.50;;;6.82;;
7557;SDS011;3820;51.098;13.716;2023-09-07T02:53:33;8.88;;;6.40;;
7557;SDS011;3820;51.098;13.716;2023-09-07T02:55:59;9.57;;;5.97;;
7557;SDS011;3820;51.098;13.716;2023-09-07T02:58:30;9.23;;;6.10;;
7557;SDS011;3820;51.098;13.716;2023-09-07T03:00:57;8.07;;;5.88;;
7557;SDS011;3820;51.098;13.716;2023-09-07T03:03:24;9.13;;;6.22;;
7557;SDS011;3820;51.098;13.716;2023-09-07T03:05:51;8.77;;;6.32;;
7557;SDS011;3820;51.098;13.716;2023-09-07T03:08:17;10.95;;;6.10;;
7557;SDS011;3820;51.098;13.716;2023-09-07T03:10:44;13.13;;;6.78;;
7557;SDS011;3820;51.098;13.716;2023-09-07T03:13:10;10.18;;;6.13;;
7557;SDS011;3820;51.098;13.716;2023-09-07T03:15:37;9.77;;;6.28;;
7557;SDS011;3820;51.098;13.716;2023-09-07T03:18:04;9.32;;;6.03;;
7557;SDS011;3820;51.098;13.716;2023-09-07T03:20:32;8.48;;;6.05;;
7557;SDS011;3820;51.098;13.716;2023-09-07T03:23:00;8.15;;;5.78;;
7557;SDS011;3820;51.098;13.716;2023-09-07T03:25:27;12.23;;;6.85;;
7557;SDS011;3820;51.098;13.716;2023-09-07T03:27:53;10.70;;;7.00;;
7557;SDS011;3820;51.098;13.716;2023-09-07T03:30:20;9.70;;;6.47;;
7557;SDS011;3820;51.098;13.716;2023-09-07T03:32:47;11.30;;;6.70;;
7557;SDS011;3820;51.098;13.716;2023-09-07T03:35:13;11.57;;;7.32;;
7557;SDS011;3820;51.098;13.716;2023-09-07T03:37:42;7.53;;;5.30;;
7557;SDS011;3820;51.098;13.716;2023-09-07T03:40:09;8.82;;;6.40;;
7557;SDS011;3820;51.098;13.716;2023-09-07T03:42:36;15.15;;;6.38;;
7557;SDS011;3820;51.098;13.716;2023-09-07T03:45:02;10.75;;;6.65;;
7557;SDS011;3820;51.098;13.716;2023-09-07T03:47:29;9.70;;;6.30;;
7557;SDS011;3820;51.098;13.716;2023-09-07T03:49:56;12.50;;;6.93;;
7557;SDS011;3820;51.098;13.716;2023-09-07T03:52:23;12.93;;;6.57;;
7557;SDS011;3820;51.098;13.716;2023-09-07T03:54:51;10.98;;;6.30;;
7557;SDS011;3820;51.098;13.716;2023-09-07T03:57:18;11.43;;;7.13;;
7557;SDS011;3820;51.098;13.716;2023-09-07T03:59:46;11.43;;;6.75;;
7557;SDS011;3820;51.098;13.716;2023-09-07T04:02:14;12.25;;;6.18;;
7557;SDS011;3820;51.098;13.716;2023-09-07T04:04:41;8.93;;;6.38;;
7557;SDS011;3820;51.098;13.716;2023-09-07T04:07:08;16.35;;;6.07;;
7557;SDS011;3820;51.098;13.716;2023-09-07T04:09:34;11.23;;;6.43;;
7557;SDS011;3820;51.098;13.716;2023-09-07T04:12:01;10.77;;;6.70;;
7557;SDS011;3820;51.098;13.716;2023-09-07T04:14:30;10.70;;;6.50;;
7557;SDS011;3820;51.098;13.716;2023-09-07T04:16:57;10.85;;;7.05;;
7557;SDS011;3820;51.098;13.716;2023-09-07T04:19:24;10.50;;;6.57;;
7557;SDS011;3820;51.098;13.716;2023-09-07T04:21:50;9.07;;;6.68;;
7557;SDS011;3820;51.098;13.716;2023-09-07T04:24:17;14.25;;;6.82;;
7557;SDS011;3820;51.098;13.716;2023-09-07T04:26:44;9.55;;;6.50;;
7557;SDS011;3820;51.098;13.716;2023-09-07T04:29:11;10.80;;;6.68;;
7557;SDS011;3820;51.098;13.716;2023-09-07T04:31:39;9.25;;;6.32;;
7557;SDS011;3820;51.098;13.716;2023-09-07T04:34:06;9.77;;;6.88;;
7557;SDS011;3820;51.098;13.716;2023-09-07T04:36:32;12.52;;;6.93;;
7557;SDS011;3820;51.098;13.716;2023-09-07T04:38:59;10.15;;;6.78;;
7557;SDS011;3820;51.098;13.716;2023-09-07T04:41:25;10.40;;;7.28;;
7557;SDS011;3820;51.098;13.716;2023-09-07T04:43:52;10.13;;;6.72;;
7557;SDS011;3820;51.098;13.716;2023-09-07T04:46:20;9.75;;;6.88;;
7557;SDS011;3820;51.098;13.716;2023-09-07T04:48:48;13.50;;;7.32;;
7557;SDS011;3820;51.098;13.716;2023-09-07T04:51:14;10.98;;;6.97;;
7557;SDS011;3820;51.098;13.716;2023-09-07T04:53:41;9.90;;;6.68;;
7557;SDS011;3820;51.098;13.716;2023-09-07T04:56:07;12.82;;;7.10;;
7557;SDS011;3820;51.098;13.716;2023-09-07T04:58:34;16.08;;;6.85;;
7557;SDS011;3820;51.098;13.716;2023-09-07T05:01:05;12.77;;;6.90;;
7557;SDS011;3820;51.098;13.716;2023-09-07T05:03:32;9.30;;;6.47;;
7557;SDS011;3820;51.098;13.716;2023-09-07T05:06:00;10.68;;;6.40;;
7557;SDS011;3820;51.098;13.716;2023-09-07T05:08:27;11.55;;;7.32;;
7557;SDS011;3820;51.098;13.716;2023-09-07T05:10:57;10.38;;;6.63;;
7557;SDS011;3820;51.098;13.716;2023-09-07T05:13:25;11.27;;;6.53;;
7557;SDS011;3820;51.098;13.716;2023-09-07T05:15:52;12.23;;;7.13;;
7557;SDS011;3820;51.098;13.716;2023-09-07T05:18:20;10.25;;;6.93;;
7557;SDS011;3820;51.098;13.716;2023-09-07T05:20:47;12.13;;;7.55;;
7557;SDS011;3820;51.098;13.716;2023-09-07T05:23:20;10.45;;;7.10;;
7557;SDS011;3820;51.098;13.716;2023-09-07T05:25:48;10.63;;;6.93;;
7557;SDS011;3820;51.098;13.716;2023-09-07T05:28:19;12.05;;;7.38;;
7557;SDS011;3820;51.098;13.716;2023-09-07T05:30:47;12.43;;;7.90;;
7557;SDS011;3820;51.098;13.716;2023-09-07T05:33:14;11.57;;;6.18;;
7557;SDS011;3820;51.098;13.716;2023-09-07T05:35:42;9.45;;;6.65;;
7557;SDS011;3820;51.098;13.716;2023-09-07T05:38:09;9.65;;;7.00;;
7557;SDS011;3820;51.098;13.716;2023-09-07T05:40:36;11.68;;;6.65;;
7557;SDS011;3820;51.098;13.716;2023-09-07T05:43:03;11.23;;;6.80;;
7557;SDS011;3820;51.098;13.716;2023-09-07T05:45:30;10.85;;;6.85;;
7557;SDS011;3820;51.098;13.716;2023-09-07T05:47:58;10.07;;;6.75;;
7557;SDS011;3820;51.098;13.716;2023-09-07T05:50:24;10.07;;;6.97;;
7557;SDS011;3820;51.098;13.716;2023-09-07T05:52:51;10.20;;;6.25;;
7557;SDS011;3820;51.098;13.716;2023-09-07T05:55:17;13.05;;;6.63;;
7557;SDS011;3820;51.098;13.716;2023-09-07T05:57:44;10.05;;;6.82;;
7557;SDS011;3820;51.098;13.716;2023-09-07T06:00:12;10.30;;;6.05;;
7557;SDS011;3820;51.098;13.716;2023-09-07T06:02:39;12.63;;;6.63;;
7557;SDS011;3820;51.098;13.716;2023-09-07T06:05:06;10.45;;;6.32;;
7557;SDS011;3820;51.098;13.716;2023-09-07T06:07:35;8.80;;;6.07;;
7557;SDS011;3820;51.098;13.716;2023-09-07T06:10:02;9.95;;;5.65;;
7557;SDS011;3820;51.098;13.716;2023-09-07T06:12:32;7.85;;;5.93;;
7557;SDS011;3820;51.098;13.716;2023-09-07T06:15:02;8.57;;;6.05;;
7557;SDS011;3820;51.098;13.716;2023-09-07T06:17:29;10.82;;;5.53;;
7557;SDS011;3820;51.098;13.716;2023-09-07T06:19:56;8.85;;;5.00;;
7557;SDS011;3820;51.098;13.716;2023-09-07T06:22:23;6.97;;;4.75;;
7557;SDS011;3820;51.098;13.716;2023-09-07T06:24:49;7.88;;;5.20;;
7557;SDS011;3820;51.098;13.716;2023-09-07T06:27:16;8.15;;;5.70;;
7557;SDS011;3820;51.098;13.716;2023-09-07T06:29:42;6.85;;;5.25;;
7557;SDS011;3820;51.098;13.716;2023-09-07T06:32:09;7.82;;;4.93;;
7557;SDS011;3820;51.098;13.716;2023-09-07T06:34:36;6.25;;;4.85;;
7557;SDS011;3820;51.098;13.716;2023-09-07T06:37:02;6.05;;;4.65;;
7557;SDS011;3820;51.098;13.716;2023-09-07T06:39:29;5.82;;;4.45;;
7557;SDS011;3820;51.098;13.716;2023-09-07T06:41:56;7.47;;;4.20;;
7557;SDS011;3820;51.098;13.716;2023-09-07T06:44:22;5.63;;;4.43;;
7557;SDS011;3820;51.098;13.716;2023-09-07T06:46:48;8.70;;;4.20;;
7557;SDS011;3820;51.098;13.716;2023-09-07T06:49:15;6.10;;;4.25;;
7557;SDS011;3820;51.098;13.716;2023-09-07T06:51:42;9.75;;;4.72;;
7557;SDS011;3820;51.098;13.716;2023-09-07T06:54:08;7.57;;;3.88;;
7557;SDS011;3820;51.098;13.716;2023-09-07T06:56:36;5.10;;;3.70;;
7557;SDS011;3820;51.098;13.716;2023-09-07T06:59:02;6.00;;;4.10;;
7557;SDS011;3820;51.098;13.716;2023-09-07T07:01:29;5.47;;;3.70;;
7557;SDS011;3820;51.098;13.716;2023-09-07T07:03:56;6.13;;;4.07;;
7557;SDS011;3820;51.098;13.716;2023-09-07T07:06:23;10.38;;;4.28;;
7557;SDS011;3820;51.098;13.716;2023-09-07T07:08:51;6.85;;;3.95;;
7557;SDS011;3820;51.098;13.716;2023-09-07T07:11:18;6.03;;;4.03;;
7557;SDS011;3820;51.098;13.716;2023-09-07T07:13:45;7.35;;;3.72;;
7557;SDS011;3820;51.098;13.716;2023-09-07T07:16:11;5.95;;;3.75;;
7557;SDS011;3820;51.098;13.716;2023-09-07T07:18:38;5.30;;;3.75;;
7557;SDS011;3820;51.098;13.716;2023-09-07T07:21:19;7.18;;;3.40;;
7557;SDS011;3820;51.098;13.716;2023-09-07T07:23:46;4.97;;;3.75;;
7557;SDS011;3820;51.098;13.716;2023-09-07T07:26:12;5.95;;;3.60;;
7557;SDS011;3820;51.098;13.716;2023-09-07T07:28:39;9.82;;;4.20;;
7557;SDS011;3820;51.098;13.716;2023-09-07T07:31:18;5.07;;;3.65;;
7557;SDS011;3820;51.098;13.716;2023-09-07T07:33:45;4.38;;;3.55;;
7557;SDS011;3820;51.098;13.716;2023-09-07T07:36:14;5.22;;;3.67;;
7557;SDS011;3820;51.098;13.716;2023-09-07T07:38:41;7.38;;;3.60;;
7557;SDS011;3820;51.098;13.716;2023-09-07T07:41:07;4.18;;;3.22;;
7557;SDS011;3820;51.098;13.716;2023-09-07T07:43:34;4.90;;;3.97;;
7557;SDS011;3820;51.098;13.716;2023-09-07T07:46:01;4.05;;;3.20;;
7557;SDS011;3820;51.098;13.716;2023-09-07T07:48:28;5.40;;;3.80;;
7557;SDS011;3820;51.098;13.716;2023-09-07T07:50:55;4.30;;;3.42;;
7557;SDS011;3820;51.098;13.716;2023-09-07T07:53:22;4.90;;;3.33;;
7557;SDS011;3820;51.098;13.716;2023-09-07T07:55:49;5.50;;;3.40;;
7557;SDS011;3820;51.098;13.716;2023-09-07T07:58:15;4.43;;;3.38;;
7557;SDS011;3820;51.098;13.716;2023-09-07T08:00:42;3.25;;;2.65;;
7557;SDS011;3820;51.098;13.716;2023-09-07T08:03:13;5.32;;;3.33;;
7557;SDS011;3820;51.098;13.716;2023-09-07T08:05:40;4.90;;;3.40;;
7557;SDS011;3820;51.098;13.716;2023-09-07T08:08:07;3.70;;;2.85;;
7557;SDS011;3820;51.098;13.716;2023-09-07T08:10:34;4.85;;;3.70;;
7557;SDS011;3820;51.098;13.716;2023-09-07T08:13:03;3.45;;;2.70;;
7557;SDS011;3820;51.098;13.716;2023-09-07T08:15:31;5.70;;;3.55;;
7557;SDS011;3820;51.098;13.716;2023-09-07T08:17:58;4.20;;;2.80;;
7557;SDS011;3820;51.098;13.716;2023-09-07T08:20:25;3.55;;;2.80;;
7557;SDS011;3820;51.098;13.716;2023-09-07T08:22:52;3.58;;;3.08;;
7557;SDS011;3820;51.098;13.716;2023-09-07T08:25:19;4.30;;;3.17;;
7557;SDS011;3820;51.098;13.716;2023-09-07T08:27:47;5.07;;;3.17;;
7557;SDS011;3820;51.098;13.716;2023-09-07T08:30:15;5.88;;;3.20;;
7557;SDS011;3820;51.098;13.716;2023-09-07T08:32:43;4.25;;;2.90;;
7557;SDS011;3820;51.098;13.716;2023-09-07T08:35:11;3.70;;;2.80;;
7557;SDS011;3820;51.098;13.716;2023-09-07T08:37:43;4.47;;;2.92;;
7557;SDS011;3820;51.098;13.716;2023-09-07T08:40:09;5.63;;;3.03;;
7557;SDS011;3820;51.098;13.716;2023-09-07T08:42:38;4.32;;;3.05;;
7557;SDS011;3820;51.098;13.716;2023-09-07T08:45:05;3.95;;;2.70;;
7557;SDS011;3820;51.098;13.716;2023-09-07T08:47:34;3.88;;;2.85;;
7557;SDS011;3820;51.098;13.716;2023-09-07T08:50:04;3.95;;;2.90;;
7557;SDS011;3820;51.098;13.716;2023-09-07T08:52:33;3.63;;;2.70;;
7557;SDS011;3820;51.098;13.716;2023-09-07T08:55:00;3.53;;;2.80;;
7557;SDS011;3820;51.098;13.716;2023-09-07T08:57:34;5.13;;;3.45;;
7557;SDS011;3820;51.098;13.716;2023-09-07T09:00:01;3.25;;;2.53;;
7557;SDS011;3820;51.098;13.716;2023-09-07T09:02:34;5.10;;;2.67;;
7557;SDS011;3820;51.098;13.716;2023-09-07T09:05:03;3.00;;;2.38;;
7557;SDS011;3820;51.098;13.716;2023-09-07T09:07:31;3.88;;;2.42;;
7557;SDS011;3820;51.098;13.716;2023-09-07T09:10:07;3.58;;;2.58;;
7557;SDS011;3820;51.098;13.716;2023-09-07T09:12:34;3.72;;;2.60;;
7557;SDS011;3820;51.098;13.716;2023-09-07T09:15:01;5.07;;;2.40;;
7557;SDS011;3820;51.098;13.716;2023-09-07T09:17:29;3.35;;;2.88;;
7557;SDS011;3820;51.098;13.716;2023-09-07T09:19:56;3.78;;;2.60;;
7557;SDS011;3820;51.098;13.716;2023-09-07T09:22:22;4.75;;;2.83;;
7557;SDS011;3820;51.098;13.716;2023-09-07T09:24:50;4.35;;;2.75;;
7557;SDS011;3820;51.098;13.716;2023-09-07T09:27:17;5.85;;;3.15;;
7557;SDS011;3820;51.098;13.716;2023-09-07T09:29:43;3.33;;;2.55;;
7557;SDS011;3820;51.098;13.716;2023-09-07T09:32:13;3.55;;;2.95;;
7557;SDS011;3820;51.098;13.716;2023-09-07T09:34:40;3.25;;;2.70;;
7557;SDS011;3820;51.098;13.716;2023-09-07T09:37:13;2.90;;;2.38;;
7557;SDS011;3820;51.098;13.716;2023-09-07T09:39:48;2.75;;;2.42;;
7557;SDS011;3820;51.098;13.716;2023-09-07T09:42:16;2.97;;;2.63;;
7557;SDS011;3820;51.098;13.716;2023-09-07T09:44:43;9.75;;;3.40;;
7557;SDS011;3820;51.098;13.716;2023-09-07T09:47:09;2.70;;;2.22;;
7557;SDS011;3820;51.098;13.716;2023-09-07T09:49:37;5.38;;;2.55;;
7557;SDS011;3820;51.098;13.716;2023-09-07T09:52:04;3.05;;;2.60;;
7557;SDS011;3820;51.098;13.716;2023-09-07T09:54:33;3.33;;;2.45;;
7557;SDS011;3820;51.098;13.716;2023-09-07T09:57:01;4.30;;;2.60;;
7557;SDS011;3820;51.098;13.716;2023-09-07T09:59:27;3.40;;;2.58;;
7557;SDS011;3820;51.098;13.716;2023-09-07T10:01:54;3.80;;;2.85;;
7557;SDS011;3820;51.098;13.716;2023-09-07T10:04:21;3.88;;;2.80;;
7557;SDS011;3820;51.098;13.716;2023-09-07T10:06:56;2.88;;;2.38;;
7557;SDS011;3820;51.098;13.716;2023-09-07T10:09:29;2.90;;;2.40;;
7557;SDS011;3820;51.098;13.716;2023-09-07T10:11:57;4.05;;;2.70;;
7557;SDS011;3820;51.098;13.716;2023-09-07T10:14:26;4.85;;;2.70;;
7557;SDS011;3820;51.098;13.716;2023-09-07T10:16:53;3.67;;;2.80;;
7557;SDS011;3820;51.098;13.716;2023-09-07T10:19:23;3.60;;;2.75;;
7557;SDS011;3820;51.098;13.716;2023-09-07T10:21:52;4.10;;;2.88;;
7557;SDS011;3820;51.098;13.716;2023-09-07T10:24:23;4.35;;;2.40;;
7557;SDS011;3820;51.098;13.716;2023-09-07T10:27:05;3.05;;;2.60;;
7557;SDS011;3820;51.098;13.716;2023-09-07T10:29:45;3.78;;;2.35;;
7557;SDS011;3820;51.098;13.716;2023-09-07T10:32:22;3.15;;;2.58;;
7557;SDS011;3820;51.098;13.716;2023-09-07T10:34:49;4.28;;;2.63;;
7557;SDS011;3820;51.098;13.716;2023-09-07T10:37:16;8.40;;;3.05;;
7557;SDS011;3820;51.098;13.716;2023-09-07T10:39:43;2.97;;;2.53;;
7557;SDS011;3820;51.098;13.716;2023-09-07T10:42:20;3.85;;;2.80;;
7557;SDS011;3820;51.098;13.716;2023-09-07T10:44:51;4.35;;;2.92;;
7557;SDS011;3820;51.098;13.716;2023-09-07T10:47:18;4.53;;;2.55;;
7557;SDS011;3820;51.098;13.716;2023-09-07T10:49:44;4.82;;;2.75;;
7557;SDS011;3820;51.098;13.716;2023-09-07T10:52:11;2.92;;;2.50;;
7557;SDS011;3820;51.098;13.716;2023-09-07T10:54:38;3.17;;;2.63;;
7557;SDS011;3820;51.098;13.716;2023-09-07T10:57:08;2.90;;;2.58;;
7557;SDS011;3820;51.098;13.716;2023-09-07T10:59:45;3.33;;;2.33;;
7557;SDS011;3820;51.098;13.716;2023-09-07T11:02:13;4.15;;;2.72;;
7557;SDS011;3820;51.098;13.716;2023-09-07T11:04:42;3.22;;;2.75;;
7557;SDS011;3820;51.098;13.716;2023-09-07T11:07:08;3.53;;;2.70;;
7557;SDS011;3820;51.098;13.716;2023-09-07T11:09:39;3.78;;;2.70;;
7557;SDS011;3820;51.098;13.716;2023-09-07T11:12:13;2.97;;;2.53;;
7557;SDS011;3820;51.098;13.716;2023-09-07T11:14:42;3.45;;;2.40;;
7557;SDS011;3820;51.098;13.716;2023-09-07T11:17:08;3.60;;;2.80;;
7557;SDS011;3820;51.098;13.716;2023-09-07T11:19:35;4.22;;;2.53;;
7557;SDS011;3820;51.098;13.716;2023-09-07T11:22:02;3.75;;;2.40;;
7557;SDS011;3820;51.098;13.716;2023-09-07T11:24:31;3.58;;;2.83;;
7557;SDS011;3820;51.098;13.716;2023-09-07T11:26:58;3.33;;;2.63;;
7557;SDS011;3820;51.098;13.716;2023-09-07T11:29:25;3.65;;;2.35;;
7557;SDS011;3820;51.098;13.716;2023-09-07T11:31:52;3.10;;;2.55;;
7557;SDS011;3820;51.098;13.716;2023-09-07T11:34:19;2.75;;;2.42;;
7557;SDS011;3820;51.098;13.716;2023-09-07T11:36:45;4.35;;;3.10;;
7557;SDS011;3820;51.098;13.716;2023-09-07T11:39:12;4.10;;;2.83;;
7557;SDS011;3820;51.098;13.716;2023-09-07T11:41:42;3.70;;;2.60;;
7557;SDS011;3820;51.098;13.716;2023-09-07T11:44:10;2.60;;;2.40;;
7557;SDS011;3820;51.098;13.716;2023-09-07T11:46:38;3.83;;;2.70;;
7557;SDS011;3820;51.098;13.716;2023-09-07T11:49:05;16.15;;;2.80;;
7557;SDS011;3820;51.098;13.716;2023-09-07T11:51:32;4.60;;;3.00;;
7557;SDS011;3820;51.098;13.716;2023-09-07T11:54:01;3.47;;;2.63;;
7557;SDS011;3820;51.098;13.716;2023-09-07T11:56:28;3.53;;;2.55;;
7557;SDS011;3820;51.098;13.716;2023-09-07T11:58:55;4.20;;;2.75;;
7557;SDS011;3820;51.098;13.716;2023-09-07T12:01:22;4.25;;;3.15;;
7557;SDS011;3820;51.098;13.716;2023-09-07T12:03:49;3.13;;;2.45;;
7557;SDS011;3820;51.098;13.716;2023-09-07T12:06:16;3.03;;;2.65;;
7557;SDS011;3820;51.098;13.716;2023-09-07T12:08:57;3.65;;;2.85;;
7557;SDS011;3820;51.098;13.716;2023-09-07T12:11:25;2.95;;;2.47;;
7557;SDS011;3820;51.098;13.716;2023-09-07T12:13:51;3.10;;;2.35;;
7557;SDS011;3820;51.098;13.716;2023-09-07T12:16:18;3.50;;;2.85;;
7557;SDS011;3820;51.098;13.716;2023-09-07T12:18:45;3.15;;;2.60;;
7557;SDS011;3820;51.098;13.716;2023-09-07T12:21:11;3.67;;;2.92;;
7557;SDS011;3820;51.098;13.716;2023-09-07T12:23:38;3.97;;;3.08;;
7557;SDS011;3820;51.098;13.716;2023-09-07T12:26:04;3.85;;;2.58;;
7557;SDS011;3820;51.098;13.716;2023-09-07T12:28:32;4.82;;;2.58;;
7557;SDS011;3820;51.098;13.716;2023-09-07T12:30:59;3.70;;;2.55;;
7557;SDS011;3820;51.098;13.716;2023-09-07T12:33:25;3.85;;;2.88;;
7557;SDS011;3820;51.098;13.716;2023-09-07T12:35:52;3.30;;;2.92;;
7557;SDS011;3820;51.098;13.716;2023-09-07T12:38:19;4.07;;;2.80;;
7557;SDS011;3820;51.098;13.716;2023-09-07T12:40:47;4.15;;;2.72;;
7557;SDS011;3820;51.098;13.716;2023-09-07T12:43:14;3.97;;;2.85;;
7557;SDS011;3820;51.098;13.716;2023-09-07T12:45:40;3.15;;;2.50;;
7557;SDS011;3820;51.098;13.716;2023-09-07T12:48:09;3.33;;;2.63;;
7557;SDS011;3820;51.098;13.716;2023-09-07T12:50:36;4.32;;;2.60;;
7557;SDS011;3820;51.098;13.716;2023-09-07T12:53:02;4.57;;;3.00;;
7557;SDS011;3820;51.098;13.716;2023-09-07T12:55:30;4.93;;;2.70;;
7557;SDS011;3820;51.098;13.716;2023-09-07T12:57:56;4.57;;;2.70;;
7557;SDS011;3820;51.098;13.716;2023-09-07T13:00:23;3.38;;;2.65;;
7557;SDS011;3820;51.098;13.716;2023-09-07T13:02:50;3.85;;;2.83;;
7557;SDS011;3820;51.098;13.716;2023-09-07T13:05:16;3.70;;;3.10;;
7557;SDS011;3820;51.098;13.716;2023-09-07T13:07:43;3.03;;;2.72;;
7557;SDS011;3820;51.098;13.716;2023-09-07T13:10:10;5.05;;;3.25;;
7557;SDS011;3820;51.098;13.716;2023-09-07T13:12:37;3.33;;;2.72;;
7557;SDS011;3820;51.098;13.716;2023-09-07T13:15:04;4.03;;;2.97;;
7557;SDS011;3820;51.098;13.716;2023-09-07T13:17:31;3.30;;;2.60;;
7557;SDS011;3820;51.098;13.716;2023-09-07T13:19:58;5.00;;;3.22;;
7557;SDS011;3820;51.098;13.716;2023-09-07T13:22:24;4.05;;;2.97;;
7557;SDS011;3820;51.098;13.716;2023-09-07T13:24:51;3.72;;;2.88;;
7557;SDS011;3820;51.098;13.716;2023-09-07T13:27:17;3.08;;;2.70;;
7557;SDS011;3820;51.098;13.716;2023-09-07T13:29:44;11.55;;;3.30;;
7557;SDS011;3820;51.098;13.716;2023-09-07T13:32:11;4.25;;;2.60;;
7557;SDS011;3820;51.098;13.716;2023-09-07T13:34:39;3.85;;;2.70;;
7557;SDS011;3820;51.098;13.716;2023-09-07T13:37:05;4.35;;;3.00;;
7557;SDS011;3820;51.098;13.716;2023-09-07T13:39:32;3.65;;;2.83;;
7557;SDS011;3820;51.098;13.716;2023-09-07T13:41:59;3.20;;;2.40;;
7557;SDS011;3820;51.098;13.716;2023-09-07T13:44:26;3.03;;;2.33;;
7557;SDS011;3820;51.098;13.716;2023-09-07T13:46:53;4.30;;;2.50;;
7557;SDS011;3820;51.098;13.716;2023-09-07T13:49:21;4.50;;;2.70;;
7557;SDS011;3820;51.098;13.716;2023-09-07T13:51:48;3.08;;;2.42;;
7557;SDS011;3820;51.098;13.716;2023-09-07T13:54:17;4.45;;;2.70;;
7557;SDS011;3820;51.098;13.716;2023-09-07T13:56:43;4.38;;;2.72;;
7557;SDS011;3820;51.098;13.716;2023-09-07T13:59:11;2.70;;;2.50;;
7557;SDS011;3820;51.098;13.716;2023-09-07T14:01:38;3.65;;;2.90;;
7557;SDS011;3820;51.098;13.716;2023-09-07T14:04:04;3.42;;;2.45;;
7557;SDS011;3820;51.098;13.716;2023-09-07T14:06:31;2.85;;;2.28;;
7557;SDS011;3820;51.098;13.716;2023-09-07T14:08:58;3.30;;;2.53;;
7557;SDS011;3820;51.098;13.716;2023-09-07T14:11:24;4.00;;;2.92;;
7557;SDS011;3820;51.098;13.716;2023-09-07T14:13:51;4.43;;;2.88;;
7557;SDS011;3820;51.098;13.716;2023-09-07T14:16:18;4.15;;;2.63;;
7557;SDS011;3820;51.098;13.716;2023-09-07T14:18:46;3.42;;;2.70;;
7557;SDS011;3820;51.098;13.716;2023-09-07T14:21:14;3.08;;;2.38;;
7557;SDS011;3820;51.098;13.716;2023-09-07T14:23:41;4.05;;;2.53;;
7557;SDS011;3820;51.098;13.716;2023-09-07T14:26:09;3.63;;;2.60;;
7557;SDS011;3820;51.098;13.716;2023-09-07T14:28:36;3.55;;;2.78;;
7557;SDS011;3820;51.098;13.716;2023-09-07T14:31:04;3.85;;;2.80;;
7557;SDS011;3820;51.098;13.716;2023-09-07T14:33:33;3.08;;;2.38;;
7557;SDS011;3820;51.098;13.716;2023-09-07T14:36:00;4.35;;;2.85;;
7557;SDS011;3820;51.098;13.716;2023-09-07T14:38:27;4.43;;;2.40;;
7557;SDS011;3820;51.098;13.716;2023-09-07T14:40:54;2.70;;;2.20;;
7557;SDS011;3820;51.098;13.716;2023-09-07T14:43:22;3.30;;;2.55;;
7557;SDS011;3820;51.098;13.716;2023-09-07T14:45:48;3.88;;;2.35;;
7557;SDS011;3820;51.098;13.716;2023-09-07T14:48:15;3.45;;;2.60;;
7557;SDS011;3820;51.098;13.716;2023-09-07T14:50:41;2.45;;;2.25;;
7557;SDS011;3820;51.098;13.716;2023-09-07T14:53:08;3.08;;;2.53;;
7557;SDS011;3820;51.098;13.716;2023-09-07T14:55:34;4.47;;;2.88;;
7557;SDS011;3820;51.098;13.716;2023-09-07T14:58:01;3.42;;;2.67;;
7557;SDS011;3820;51.098;13.716;2023-09-07T15:00:32;3.40;;;2.80;;